sensor_id;sensor_type;location;lat;lon;timestamp;pressure;altitude;pressure_sealevel;temperature;humidity
8069;BME280;4077;43.702;24.896;2023-05-10T00:01:02;100024.69;;;9.86;100.00
8069;BME280;4077;43.702;24.896;2023-05-10T00:03:27;100024.78;;;9.90;100.00
8069;BME280;4077;43.702;24.896;2023-05-10T00:05:53;100022.66;;;9.73;100.00
8069;BME280;4077;43.702;24.896;2023-05-10T00:08:18;100014.16;;;9.77;100.00
8069;BME280;4077;43.702;24.896;2023-05-10T00:10:44;100016.06;;;9.86;100.00
8069;BME280;4077;43.702;24.896;2023-05-10T00:13:09;100007.28;;;9.76;100.00
8069;BME280;4077;43.702;24.896;2023-05-10T00:15:35;99968.81;;;9.48;100.00
8069;BME280;4077;43.702;24.896;2023-05-10T00:18:00;99995.50;;;9.51;100.00
8069;BME280;4077;43.702;24.896;2023-05-10T00:20:26;100004.78;;;9.81;100.00
8069;BME280;4077;43.702;24.896;2023-05-10T00:22:52;100004.03;;;9.85;100.00
8069;BME280;4077;43.702;24.896;2023-05-10T00:25:17;99998.50;;;9.68;100.00
8069;BME280;4077;43.702;24.896;2023-05-10T00:27:43;100003.72;;;9.71;100.00
8069;BME280;4077;43.702;24.896;2023-05-10T00:30:08;99983.63;;;9.56;100.00
8069;BME280;4077;43.702;24.896;2023-05-10T00:32:34;99991.53;;;9.64;100.00
8069;BME280;4077;43.702;24.896;2023-05-10T00:34:59;99990.69;;;9.65;100.00
8069;BME280;4077;43.702;24.896;2023-05-10T00:37:24;99994.16;;;9.67;100.00
8069;BME280;4077;43.702;24.896;2023-05-10T00:39:50;99985.47;;;9.62;100.00
8069;BME280;4077;43.702;24.896;2023-05-10T00:42:15;99975.00;;;9.54;100.00
8069;BME280;4077;43.702;24.896;2023-05-10T00:44:41;99975.75;;;9.52;100.00
8069;BME280;4077;43.702;24.896;2023-05-10T00:47:07;99981.00;;;9.55;100.00
8069;BME280;4077;43.702;24.896;2023-05-10T00:49:33;99989.53;;;9.52;100.00
8069;BME280;4077;43.702;24.896;2023-05-10T00:51:59;99990.56;;;9.60;100.00
8069;BME280;4077;43.702;24.896;2023-05-10T00:54:24;99982.88;;;9.62;100.00
8069;BME280;4077;43.702;24.896;2023-05-10T00:56:51;99975.03;;;9.57;100.00
8069;BME280;4077;43.702;24.896;2023-05-10T00:59:16;99980.91;;;9.52;100.00
8069;BME280;4077;43.702;24.896;2023-05-10T01:01:44;99992.97;;;9.53;100.00
8069;BME280;4077;43.702;24.896;2023-05-10T01:04:11;99996.22;;;9.46;100.00
8069;BME280;4077;43.702;24.896;2023-05-10T01:06:38;99982.38;;;9.41;100.00
8069;BME280;4077;43.702;24.896;2023-05-10T01:09:04;99977.50;;;9.53;100.00
8069;BME280;4077;43.702;24.896;2023-05-10T01:11:32;99969.97;;;9.24;100.00
8069;BME280;4077;43.702;24.896;2023-05-10T01:13:58;99986.34;;;9.26;100.00
8069;BME280;4077;43.702;24.896;2023-05-10T01:16:24;99982.78;;;9.21;100.00
8069;BME280;4077;43.702;24.896;2023-05-10T01:18:51;99982.06;;;9.65;100.00
8069;BME280;4077;43.702;24.896;2023-05-10T01:21:27;99974.22;;;9.22;100.00
8069;BME280;4077;43.702;24.896;2023-05-10T01:35:16;99974.19;;;9.21;100.00
8069;BME280;4077;43.702;24.896;2023-05-10T01:40:44;99966.19;;;9.12;100.00
8069;BME280;4077;43.702;24.896;2023-05-10T01:43:21;99961.84;;;9.09;100.00
8069;BME280;4077;43.702;24.896;2023-05-10T01:46:09;99970.56;;;9.14;100.00
8069;BME280;4077;43.702;24.896;2023-05-10T01:48:47;99963.47;;;9.05;100.00
8069;BME280;4077;43.702;24.896;2023-05-10T01:51:21;99958.06;;;8.95;100.00
8069;BME280;4077;43.702;24.896;2023-05-10T01:53:48;99964.81;;;8.91;100.00
8069;BME280;4077;43.702;24.896;2023-05-10T01:56:15;99960.66;;;8.95;100.00
8069;BME280;4077;43.702;24.896;2023-05-10T01:58:43;99958.91;;;8.94;100.00
8069;BME280;4077;43.702;24.896;2023-05-10T02:01:11;99971.84;;;8.97;100.00
8069;BME280;4077;43.702;24.896;2023-05-10T02:03:38;99971.25;;;9.07;100.00
8069;BME280;4077;43.702;24.896;2023-05-10T02:06:05;99970.56;;;8.80;100.00
8069;BME280;4077;43.702;24.896;2023-05-10T02:08:35;99975.91;;;8.87;100.00
8069;BME280;4077;43.702;24.896;2023-05-10T02:11:02;99975.06;;;8.88;100.00
8069;BME280;4077;43.702;24.896;2023-05-10T02:13:29;99977.69;;;8.91;100.00
8069;BME280;4077;43.702;24.896;2023-05-10T02:15:57;99978.47;;;8.87;100.00
8069;BME280;4077;43.702;24.896;2023-05-10T02:18:25;99981.00;;;8.86;100.00
8069;BME280;4077;43.702;24.896;2023-05-10T02:20:53;99977.44;;;8.81;100.00
8069;BME280;4077;43.702;24.896;2023-05-10T02:23:20;99968.94;;;8.85;100.00
8069;BME280;4077;43.702;24.896;2023-05-10T02:25:47;99986.38;;;8.95;100.00
8069;BME280;4077;43.702;24.896;2023-05-10T02:28:14;99978.38;;;8.84;100.00
8069;BME280;4077;43.702;24.896;2023-05-10T02:30:41;99973.00;;;8.75;100.00
8069;BME280;4077;43.702;24.896;2023-05-10T02:33:07;99975.25;;;8.64;100.00
8069;BME280;4077;43.702;24.896;2023-05-10T02:35:33;99958.19;;;8.66;100.00
8069;BME280;4077;43.702;24.896;2023-05-10T02:38:01;99964.69;;;8.54;100.00
8069;BME280;4077;43.702;24.896;2023-05-10T02:40:27;99980.19;;;8.55;100.00
8069;BME280;4077;43.702;24.896;2023-05-10T02:42:55;99973.47;;;8.60;100.00
8069;BME280;4077;43.702;24.896;2023-05-10T02:45:24;99969.88;;;8.55;100.00
8069;BME280;4077;43.702;24.896;2023-05-10T02:47:52;99953.91;;;8.35;100.00
8069;BME280;4077;43.702;24.896;2023-05-10T02:50:18;99974.63;;;8.40;100.00
8069;BME280;4077;43.702;24.896;2023-05-10T02:52:47;99969.19;;;8.31;100.00
8069;BME280;4077;43.702;24.896;2023-05-10T02:55:14;99971.44;;;8.20;100.00
8069;BME280;4077;43.702;24.896;2023-05-10T02:57:46;99967.66;;;8.07;100.00
8069;BME280;4077;43.702;24.896;2023-05-10T03:00:14;99969.56;;;8.14;100.00
8069;BME280;4077;43.702;24.896;2023-05-10T03:02:40;99961.66;;;8.08;100.00
8069;BME280;4077;43.702;24.896;2023-05-10T03:05:06;99970.25;;;8.09;100.00
8069;BME280;4077;43.702;24.896;2023-05-10T03:07:33;99970.25;;;8.09;100.00
8069;BME280;4077;43.702;24.896;2023-05-10T03:10:00;99961.97;;;8.17;100.00
8069;BME280;4077;43.702;24.896;2023-05-10T03:15:42;99959.03;;;8.05;100.00
8069;BME280;4077;43.702;24.896;2023-05-10T03:21:19;99947.69;;;7.99;100.00
8069;BME280;4077;43.702;24.896;2023-05-10T03:24:13;99949.09;;;8.17;100.00
8069;BME280;4077;43.702;24.896;2023-05-10T03:26:43;99942.75;;;8.06;100.00
8069;BME280;4077;43.702;24.896;2023-05-10T03:29:11;99925.25;;;7.93;100.00
8069;BME280;4077;43.702;24.896;2023-05-10T03:31:38;99941.56;;;7.95;100.00
8069;BME280;4077;43.702;24.896;2023-05-10T03:34:04;99930.31;;;7.90;100.00
8069;BME280;4077;43.702;24.896;2023-05-10T03:36:29;99937.31;;;7.95;100.00
8069;BME280;4077;43.702;24.896;2023-05-10T03:38:55;99948.88;;;8.10;100.00
8069;BME280;4077;43.702;24.896;2023-05-10T03:41:20;99929.19;;;8.10;100.00
8069;BME280;4077;43.702;24.896;2023-05-10T03:43:46;99951.88;;;8.25;100.00
8069;BME280;4077;43.702;24.896;2023-05-10T03:46:11;99955.31;;;8.26;100.00
8069;BME280;4077;43.702;24.896;2023-05-10T03:48:37;99963.94;;;8.28;100.00
8069;BME280;4077;43.702;24.896;2023-05-10T03:51:02;99963.94;;;8.28;100.00
8069;BME280;4077;43.702;24.896;2023-05-10T03:53:28;99974.34;;;8.31;100.00
8069;BME280;4077;43.702;24.896;2023-05-10T03:55:53;99973.88;;;8.15;100.00
8069;BME280;4077;43.702;24.896;2023-05-10T03:58:18;99982.59;;;8.20;100.00
8069;BME280;4077;43.702;24.896;2023-05-10T04:00:44;99987.75;;;8.20;100.00
8069;BME280;4077;43.702;24.896;2023-05-10T04:03:13;99983.56;;;8.24;100.00
8069;BME280;4077;43.702;24.896;2023-05-10T04:05:39;99992.22;;;8.28;100.00
8069;BME280;4077;43.702;24.896;2023-05-10T04:08:05;99991.22;;;8.22;100.00
8069;BME280;4077;43.702;24.896;2023-05-10T04:10:31;99993.94;;;8.27;100.00
8069;BME280;4077;43.702;24.896;2023-05-10T04:12:57;99983.81;;;8.33;100.00
8069;BME280;4077;43.702;24.896;2023-05-10T04:15:22;99995.25;;;8.43;100.00
8069;BME280;4077;43.702;24.896;2023-05-10T04:17:48;99991.97;;;8.47;100.00
8069;BME280;4077;43.702;24.896;2023-05-10T04:20:14;99992.19;;;8.56;100.00
8069;BME280;4077;43.702;24.896;2023-05-10T04:22:39;99993.22;;;8.61;100.00
8069;BME280;4077;43.702;24.896;2023-05-10T04:25:06;99989.94;;;8.67;100.00
8069;BME280;4077;43.702;24.896;2023-05-10T04:27:32;99995.13;;;8.68;100.00
8069;BME280;4077;43.702;24.896;2023-05-10T04:29:57;99996.13;;;8.73;100.00
8069;BME280;4077;43.702;24.896;2023-05-10T04:32:23;99987.34;;;8.65;100.00
8069;BME280;4077;43.702;24.896;2023-05-10T04:34:49;99983.94;;;8.66;100.00
8069;BME280;4077;43.702;24.896;2023-05-10T04:37:15;99995.75;;;8.60;100.00
8069;BME280;4077;43.702;24.896;2023-05-10T04:39:41;100003.44;;;8.30;100.00
8069;BME280;4077;43.702;24.896;2023-05-10T04:42:06;99987.66;;;8.17;100.00
8069;BME280;4077;43.702;24.896;2023-05-10T04:44:32;99986.94;;;8.23;100.00
8069;BME280;4077;43.702;24.896;2023-05-10T04:46:58;100000.78;;;8.27;100.00
8069;BME280;4077;43.702;24.896;2023-05-10T04:49:23;99985.28;;;8.23;100.00
8069;BME280;4077;43.702;24.896;2023-05-10T04:51:48;99993.13;;;8.30;100.00
8069;BME280;4077;43.702;24.896;2023-05-10T04:54:14;99997.91;;;8.44;100.00
8069;BME280;4077;43.702;24.896;2023-05-10T04:56:39;99997.09;;;8.47;100.00
8069;BME280;4077;43.702;24.896;2023-05-10T04:59:06;99987.53;;;8.43;100.00
8069;BME280;4077;43.702;24.896;2023-05-10T05:01:32;100001.56;;;8.53;100.00
8069;BME280;4077;43.702;24.896;2023-05-10T05:03:57;100006.06;;;8.61;100.00
8069;BME280;4077;43.702;24.896;2023-05-10T05:06:23;99998.31;;;8.60;100.00
8069;BME280;4077;43.702;24.896;2023-05-10T05:08:50;99994.31;;;8.71;100.00
8069;BME280;4077;43.702;24.896;2023-05-10T05:11:17;99998.34;;;8.93;100.00
8069;BME280;4077;43.702;24.896;2023-05-10T05:13:42;100010.50;;;8.98;100.00
8069;BME280;4077;43.702;24.896;2023-05-10T05:16:08;100011.09;;;8.88;100.00
8069;BME280;4077;43.702;24.896;2023-05-10T05:18:34;100007.97;;;9.00;100.00
8069;BME280;4077;43.702;24.896;2023-05-10T05:21:02;100015.78;;;9.03;100.00
8069;BME280;4077;43.702;24.896;2023-05-10T05:23:27;100008.88;;;9.02;100.00
8069;BME280;4077;43.702;24.896;2023-05-10T05:25:53;100008.53;;;9.21;100.00
8069;BME280;4077;43.702;24.896;2023-05-10T05:28:19;100000.88;;;9.24;100.00
8069;BME280;4077;43.702;24.896;2023-05-10T05:30:45;100014.28;;;9.46;100.00
8069;BME280;4077;43.702;24.896;2023-05-10T05:33:11;100010.19;;;9.54;100.00
8069;BME280;4077;43.702;24.896;2023-05-10T05:35:38;100012.13;;;9.64;100.00
8069;BME280;4077;43.702;24.896;2023-05-10T05:38:03;100005.00;;;9.90;100.00
8069;BME280;4077;43.702;24.896;2023-05-10T05:40:29;100010.38;;;10.01;100.00
8069;BME280;4077;43.702;24.896;2023-05-10T05:42:54;100018.47;;;10.16;100.00
8069;BME280;4077;43.702;24.896;2023-05-10T05:45:19;100021.38;;;10.30;100.00
8069;BME280;4077;43.702;24.896;2023-05-10T05:47:45;100018.16;;;10.41;100.00
8069;BME280;4077;43.702;24.896;2023-05-10T05:50:10;100026.03;;;10.48;100.00
8069;BME280;4077;43.702;24.896;2023-05-10T05:52:36;100036.56;;;10.57;100.00
8069;BME280;4077;43.702;24.896;2023-05-10T05:55:01;100022.09;;;10.65;100.00
8069;BME280;4077;43.702;24.896;2023-05-10T05:57:27;100031.97;;;10.86;100.00
8069;BME280;4077;43.702;24.896;2023-05-10T05:59:53;100041.13;;;11.17;100.00
8069;BME280;4077;43.702;24.896;2023-05-10T06:02:18;100052.69;;;11.36;100.00
8069;BME280;4077;43.702;24.896;2023-05-10T06:04:44;100049.56;;;11.55;100.00
8069;BME280;4077;43.702;24.896;2023-05-10T06:07:09;100050.97;;;11.88;100.00
8069;BME280;4077;43.702;24.896;2023-05-10T06:09:35;100058.03;;;11.99;100.00
8069;BME280;4077;43.702;24.896;2023-05-10T06:12:00;100060.13;;;12.23;100.00
8069;BME280;4077;43.702;24.896;2023-05-10T06:14:26;100047.47;;;12.45;100.00
8069;BME280;4077;43.702;24.896;2023-05-10T06:16:52;100065.84;;;12.68;100.00
8069;BME280;4077;43.702;24.896;2023-05-10T06:19:18;100066.03;;;12.83;100.00
8069;BME280;4077;43.702;24.896;2023-05-10T06:21:43;100067.66;;;12.75;100.00
8069;BME280;4077;43.702;24.896;2023-05-10T06:24:08;100061.69;;;12.77;100.00
8069;BME280;4077;43.702;24.896;2023-05-10T06:26:34;100057.63;;;13.02;100.00
8069;BME280;4077;43.702;24.896;2023-05-10T06:28:59;100069.78;;;13.09;100.00
8069;BME280;4077;43.702;24.896;2023-05-10T06:31:25;100072.28;;;12.97;100.00
8069;BME280;4077;43.702;24.896;2023-05-10T06:33:50;100052.47;;;13.05;100.00
8069;BME280;4077;43.702;24.896;2023-05-10T06:36:16;100058.84;;;13.36;100.00
8069;BME280;4077;43.702;24.896;2023-05-10T06:38:41;100042.19;;;13.16;100.00
8069;BME280;4077;43.702;24.896;2023-05-10T06:41:07;100040.72;;;13.38;100.00
8069;BME280;4077;43.702;24.896;2023-05-10T06:43:33;100065.06;;;13.52;100.00
8069;BME280;4077;43.702;24.896;2023-05-10T06:45:59;100067.78;;;13.71;100.00
8069;BME280;4077;43.702;24.896;2023-05-10T06:48:24;100071.50;;;14.02;100.00
8069;BME280;4077;43.702;24.896;2023-05-10T06:50:49;100058.66;;;14.24;100.00
8069;BME280;4077;43.702;24.896;2023-05-10T06:53:15;100062.22;;;14.42;95.82
8069;BME280;4077;43.702;24.896;2023-05-10T06:55:40;100070.94;;;14.55;93.76
8069;BME280;4077;43.702;24.896;2023-05-10T06:58:06;100067.50;;;14.60;95.67
8069;BME280;4077;43.702;24.896;2023-05-10T07:00:31;100067.53;;;14.66;92.13
8069;BME280;4077;43.702;24.896;2023-05-10T07:02:57;100071.13;;;14.93;90.05
8069;BME280;4077;43.702;24.896;2023-05-10T07:05:23;100074.59;;;15.01;84.96
8069;BME280;4077;43.702;24.896;2023-05-10T07:07:49;100064.19;;;14.95;85.18
8069;BME280;4077;43.702;24.896;2023-05-10T07:10:14;100062.47;;;15.09;81.50
8069;BME280;4077;43.702;24.896;2023-05-10T07:12:39;100083.38;;;15.46;78.75
8069;BME280;4077;43.702;24.896;2023-05-10T07:15:05;100084.22;;;15.42;73.85
8069;BME280;4077;43.702;24.896;2023-05-10T07:17:31;100085.09;;;15.41;71.54
8069;BME280;4077;43.702;24.896;2023-05-10T07:19:58;100086.00;;;15.64;69.66
8069;BME280;4077;43.702;24.896;2023-05-10T07:22:24;100079.94;;;15.88;70.48
8069;BME280;4077;43.702;24.896;2023-05-10T07:24:49;100076.44;;;16.09;68.61
8069;BME280;4077;43.702;24.896;2023-05-10T07:27:15;100076.44;;;16.03;64.24
8069;BME280;4077;43.702;24.896;2023-05-10T07:29:40;100092.06;;;16.03;61.50
8069;BME280;4077;43.702;24.896;2023-05-10T07:32:06;100084.25;;;15.98;64.35
8069;BME280;4077;43.702;24.896;2023-05-10T07:34:31;100082.53;;;15.97;63.04
8069;BME280;4077;43.702;24.896;2023-05-10T07:37:00;100078.13;;;16.31;63.30
8069;BME280;4077;43.702;24.896;2023-05-10T07:39:26;100085.03;;;16.46;63.46
8069;BME280;4077;43.702;24.896;2023-05-10T07:41:52;100084.22;;;16.27;61.52
8069;BME280;4077;43.702;24.896;2023-05-10T07:44:17;100079.06;;;16.13;60.70
8069;BME280;4077;43.702;24.896;2023-05-10T07:46:46;100079.91;;;16.11;61.16
8069;BME280;4077;43.702;24.896;2023-05-10T07:49:12;100089.44;;;16.33;61.22
8069;BME280;4077;43.702;24.896;2023-05-10T07:51:38;100079.00;;;16.24;61.21
8069;BME280;4077;43.702;24.896;2023-05-10T07:54:06;100068.47;;;16.59;60.95
8069;BME280;4077;43.702;24.896;2023-05-10T07:56:32;100078.06;;;16.54;60.27
8069;BME280;4077;43.702;24.896;2023-05-10T07:59:03;100078.00;;;16.74;61.03
8069;BME280;4077;43.702;24.896;2023-05-10T08:01:33;100084.94;;;16.84;59.16
8069;BME280;4077;43.702;24.896;2023-05-10T08:03:58;100085.84;;;16.76;59.22
8069;BME280;4077;43.702;24.896;2023-05-10T08:06:24;100077.16;;;16.63;59.63
8069;BME280;4077;43.702;24.896;2023-05-10T08:08:51;100076.31;;;16.53;57.64
8069;BME280;4077;43.702;24.896;2023-05-10T08:11:19;100076.28;;;16.64;58.38
8069;BME280;4077;43.702;24.896;2023-05-10T08:13:46;100077.97;;;16.89;58.87
8069;BME280;4077;43.702;24.896;2023-05-10T08:16:12;100072.59;;;17.17;57.86
8069;BME280;4077;43.702;24.896;2023-05-10T08:18:38;100072.56;;;17.23;56.53
8069;BME280;4077;43.702;24.896;2023-05-10T08:21:04;100083.06;;;17.08;57.41
8069;BME280;4077;43.702;24.896;2023-05-10T08:23:30;100070.13;;;16.86;60.58
8069;BME280;4077;43.702;24.896;2023-05-10T08:25:55;100072.56;;;17.20;61.42
8069;BME280;4077;43.702;24.896;2023-05-10T08:28:21;100074.16;;;17.45;59.71
8069;BME280;4077;43.702;24.896;2023-05-10T08:30:46;100079.38;;;17.45;58.12
8069;BME280;4077;43.702;24.896;2023-05-10T08:33:12;100081.97;;;17.42;57.02
8069;BME280;4077;43.702;24.896;2023-05-10T08:35:37;100074.25;;;17.27;58.93
8069;BME280;4077;43.702;24.896;2023-05-10T08:38:02;100078.59;;;17.27;57.79
8069;BME280;4077;43.702;24.896;2023-05-10T08:40:28;100074.28;;;17.21;56.47
8069;BME280;4077;43.702;24.896;2023-05-10T08:43:08;100075.97;;;17.31;56.08
8069;BME280;4077;43.702;24.896;2023-05-10T08:45:37;100082.81;;;17.50;57.03
8069;BME280;4077;43.702;24.896;2023-05-10T08:48:05;100061.97;;;17.41;56.52
8069;BME280;4077;43.702;24.896;2023-05-10T08:50:31;100077.59;;;17.50;55.37
8069;BME280;4077;43.702;24.896;2023-05-10T08:53:00;100072.28;;;17.60;56.88
8069;BME280;4077;43.702;24.896;2023-05-10T08:55:26;100080.06;;;17.73;56.80
8069;BME280;4077;43.702;24.896;2023-05-10T08:57:52;100070.47;;;17.74;57.53
8069;BME280;4077;43.702;24.896;2023-05-10T09:00:18;100066.97;;;17.75;56.98
8069;BME280;4077;43.702;24.896;2023-05-10T09:02:44;100086.09;;;17.79;55.54
8069;BME280;4077;43.702;24.896;2023-05-10T09:05:12;100063.78;;;17.36;55.40
8069;BME280;4077;43.702;24.896;2023-05-10T09:07:37;100068.81;;;17.56;55.74
8069;BME280;4077;43.702;24.896;2023-05-10T09:10:04;100050.53;;;17.61;55.91
8069;BME280;4077;43.702;24.896;2023-05-10T09:12:29;100063.38;;;17.88;53.17
8069;BME280;4077;43.702;24.896;2023-05-10T09:14:55;100063.34;;;17.93;54.01
8069;BME280;4077;43.702;24.896;2023-05-10T09:17:23;100046.75;;;17.95;52.48
8069;BME280;4077;43.702;24.896;2023-05-10T09:19:50;100066.56;;;18.21;52.02
8069;BME280;4077;43.702;24.896;2023-05-10T09:22:22;100055.19;;;18.23;50.71
8069;BME280;4077;43.702;24.896;2023-05-10T09:24:47;100055.84;;;18.42;49.57
8069;BME280;4077;43.702;24.896;2023-05-10T09:27:13;100055.81;;;19.14;49.08
8069;BME280;4077;43.702;24.896;2023-05-10T09:29:42;100062.19;;;19.54;46.61
8069;BME280;4077;43.702;24.896;2023-05-10T09:32:08;100069.50;;;19.89;46.67
8069;BME280;4077;43.702;24.896;2023-05-10T09:34:33;100053.91;;;19.81;46.62
8069;BME280;4077;43.702;24.896;2023-05-10T09:37:02;100072.81;;;21.32;45.08
8069;BME280;4077;43.702;24.896;2023-05-10T09:39:33;100069.41;;;21.25;43.56
8069;BME280;4077;43.702;24.896;2023-05-10T09:42:01;100061.91;;;21.10;42.69
8069;BME280;4077;43.702;24.896;2023-05-10T09:44:29;100042.56;;;21.12;43.71
8069;BME280;4077;43.702;24.896;2023-05-10T09:46:54;100053.94;;;20.28;44.40
8069;BME280;4077;43.702;24.896;2023-05-10T09:49:21;100054.03;;;19.77;46.06
8069;BME280;4077;43.702;24.896;2023-05-10T09:51:47;100044.66;;;19.00;46.26
8069;BME280;4077;43.702;24.896;2023-05-10T09:54:16;100017.69;;;18.97;47.22
8069;BME280;4077;43.702;24.896;2023-05-10T09:56:42;100022.28;;;18.81;47.56
8069;BME280;4077;43.702;24.896;2023-05-10T09:59:10;100026.75;;;18.74;47.29
8069;BME280;4077;43.702;24.896;2023-05-10T10:01:36;100040.69;;;18.72;46.12
8069;BME280;4077;43.702;24.896;2023-05-10T10:04:06;100032.03;;;18.70;46.35
8069;BME280;4077;43.702;24.896;2023-05-10T10:06:39;100018.88;;;18.76;46.09
8069;BME280;4077;43.702;24.896;2023-05-10T10:09:06;100021.81;;;19.13;45.82
8069;BME280;4077;43.702;24.896;2023-05-10T10:11:33;100026.72;;;19.36;45.11
8069;BME280;4077;43.702;24.896;2023-05-10T10:13:58;100027.69;;;19.27;44.27
8069;BME280;4077;43.702;24.896;2023-05-10T10:16:27;100017.66;;;19.00;44.44
8069;BME280;4077;43.702;24.896;2023-05-10T10:18:54;100016.88;;;18.95;44.65
8069;BME280;4077;43.702;24.896;2023-05-10T10:21:20;99999.72;;;18.74;44.73
8069;BME280;4077;43.702;24.896;2023-05-10T10:23:46;100011.72;;;18.89;44.45
8069;BME280;4077;43.702;24.896;2023-05-10T10:26:11;100009.69;;;19.07;44.59
8069;BME280;4077;43.702;24.896;2023-05-10T10:34:27;100004.03;;;19.33;45.14
8069;BME280;4077;43.702;24.896;2023-05-10T10:36:54;99998.84;;;19.32;44.22
8069;BME280;4077;43.702;24.896;2023-05-10T10:39:20;99996.72;;;19.01;43.37
8069;BME280;4077;43.702;24.896;2023-05-10T10:41:54;100010.47;;;19.12;43.60
8069;BME280;4077;43.702;24.896;2023-05-10T10:49:51;99993.53;;;18.81;45.06
8069;BME280;4077;43.702;24.896;2023-05-10T10:52:41;99999.34;;;19.01;45.38
8069;BME280;4077;43.702;24.896;2023-05-10T11:00:22;99998.81;;;19.33;43.43
8069;BME280;4077;43.702;24.896;2023-05-10T11:02:51;99996.06;;;19.41;43.03
8069;BME280;4077;43.702;24.896;2023-05-10T11:08:30;99995.06;;;19.48;44.38
8069;BME280;4077;43.702;24.896;2023-05-10T11:13:43;99994.75;;;19.70;42.27
8069;BME280;4077;43.702;24.896;2023-05-10T11:16:23;99998.91;;;19.81;41.55
8069;BME280;4077;43.702;24.896;2023-05-10T11:19:13;99989.13;;;19.91;41.10
8069;BME280;4077;43.702;24.896;2023-05-10T11:21:49;99974.84;;;19.59;41.49
8069;BME280;4077;43.702;24.896;2023-05-10T11:24:18;99975.66;;;19.09;41.35
8069;BME280;4077;43.702;24.896;2023-05-10T11:26:44;99977.72;;;18.89;41.90
8069;BME280;4077;43.702;24.896;2023-05-10T11:29:09;99968.31;;;18.75;41.95
8069;BME280;4077;43.702;24.896;2023-05-10T11:31:35;99982.75;;;18.99;42.32
8069;BME280;4077;43.702;24.896;2023-05-10T11:34:06;99964.59;;;18.90;41.48
8069;BME280;4077;43.702;24.896;2023-05-10T11:36:33;99955.25;;;18.72;41.74
8069;BME280;4077;43.702;24.896;2023-05-10T11:38:59;99963.19;;;18.68;43.36
8069;BME280;4077;43.702;24.896;2023-05-10T11:41:27;99960.41;;;18.78;43.27
8069;BME280;4077;43.702;24.896;2023-05-10T11:43:54;99960.94;;;19.02;44.03
8069;BME280;4077;43.702;24.896;2023-05-10T11:46:23;99949.72;;;18.95;42.48
8069;BME280;4077;43.702;24.896;2023-05-10T11:48:53;99951.16;;;19.13;42.81
8069;BME280;4077;43.702;24.896;2023-05-10T11:51:23;99944.19;;;19.12;43.22
8069;BME280;4077;43.702;24.896;2023-05-10T11:53:53;99969.31;;;19.24;42.86
8069;BME280;4077;43.702;24.896;2023-05-10T11:56:19;99963.47;;;19.08;43.30
8069;BME280;4077;43.702;24.896;2023-05-10T11:58:55;99960.50;;;18.74;42.54
8069;BME280;4077;43.702;24.896;2023-05-10T12:01:22;99953.00;;;18.46;42.90
8069;BME280;4077;43.702;24.896;2023-05-10T12:03:49;99948.44;;;18.61;43.04
8069;BME280;4077;43.702;24.896;2023-05-10T12:06:15;99949.06;;;18.81;42.28
8069;BME280;4077;43.702;24.896;2023-05-10T12:08:49;99937.53;;;18.94;43.06
8069;BME280;4077;43.702;24.896;2023-05-10T12:11:18;99940.06;;;18.97;43.22
8069;BME280;4077;43.702;24.896;2023-05-10T12:13:44;99936.72;;;18.89;42.68
8069;BME280;4077;43.702;24.896;2023-05-10T12:16:13;99938.75;;;18.69;43.17
8069;BME280;4077;43.702;24.896;2023-05-10T12:18:40;99933.59;;;18.59;43.14
8069;BME280;4077;43.702;24.896;2023-05-10T12:21:06;99928.31;;;18.69;43.13
8069;BME280;4077;43.702;24.896;2023-05-10T12:23:31;99929.09;;;18.72;43.74
8069;BME280;4077;43.702;24.896;2023-05-10T12:26:08;99923.97;;;18.68;42.58
8069;BME280;4077;43.702;24.896;2023-05-10T12:28:34;99924.84;;;18.67;42.99
8069;BME280;4077;43.702;24.896;2023-05-10T12:31:01;99921.41;;;18.62;42.39
8069;BME280;4077;43.702;24.896;2023-05-10T12:33:35;99924.91;;;18.59;42.63
8069;BME280;4077;43.702;24.896;2023-05-10T12:36:02;99925.91;;;18.50;43.49
8069;BME280;4077;43.702;24.896;2023-05-10T12:41:06;99896.72;;;18.19;43.41
8069;BME280;4077;43.702;24.896;2023-05-10T12:43:33;99916.00;;;18.09;44.58
8069;BME280;4077;43.702;24.896;2023-05-10T12:46:04;99896.81;;;18.10;44.26
8069;BME280;4077;43.702;24.896;2023-05-10T12:48:29;99907.13;;;18.22;44.51
8069;BME280;4077;43.702;24.896;2023-05-10T12:50:56;99904.63;;;18.12;44.13
8069;BME280;4077;43.702;24.896;2023-05-10T12:53:22;99917.88;;;17.99;44.02
8069;BME280;4077;43.702;24.896;2023-05-10T12:55:47;99895.41;;;17.82;44.67
8069;BME280;4077;43.702;24.896;2023-05-10T12:58:16;99903.97;;;17.96;44.66
8069;BME280;4077;43.702;24.896;2023-05-10T13:00:41;99883.94;;;17.96;44.30
8069;BME280;4077;43.702;24.896;2023-05-10T13:03:06;99895.31;;;17.92;43.79
8069;BME280;4077;43.702;24.896;2023-05-10T13:05:32;99877.09;;;17.86;43.58
8069;BME280;4077;43.702;24.896;2023-05-10T13:07:58;99884.59;;;18.14;43.49
8069;BME280;4077;43.702;24.896;2023-05-10T13:10:23;99885.75;;;17.91;44.41
8069;BME280;4077;43.702;24.896;2023-05-10T13:12:50;99867.63;;;17.76;44.42
8069;BME280;4077;43.702;24.896;2023-05-10T13:15:15;99870.06;;;17.90;45.43
8069;BME280;4077;43.702;24.896;2023-05-10T13:17:41;99874.41;;;17.91;45.51
8069;BME280;4077;43.702;24.896;2023-05-10T13:20:08;99877.03;;;17.89;44.54
8069;BME280;4077;43.702;24.896;2023-05-10T13:22:34;99871.72;;;17.98;44.18
8069;BME280;4077;43.702;24.896;2023-05-10T13:25:00;99869.81;;;18.13;44.86
8069;BME280;4077;43.702;24.896;2023-05-10T13:27:26;99861.09;;;18.11;44.93
8069;BME280;4077;43.702;24.896;2023-05-10T13:29:51;99855.25;;;17.93;43.06
8069;BME280;4077;43.702;24.896;2023-05-10T13:32:16;99850.84;;;17.98;43.38
8069;BME280;4077;43.702;24.896;2023-05-10T13:34:42;99848.16;;;18.01;44.60
8069;BME280;4077;43.702;24.896;2023-05-10T13:37:07;99852.50;;;18.02;44.43
8069;BME280;4077;43.702;24.896;2023-05-10T13:39:33;99849.84;;;18.07;43.95
8069;BME280;4077;43.702;24.896;2023-05-10T13:41:59;99848.00;;;18.14;43.67
8069;BME280;4077;43.702;24.896;2023-05-10T13:44:25;99844.44;;;18.18;45.07
8069;BME280;4077;43.702;24.896;2023-05-10T13:46:51;99862.66;;;18.24;44.44
8069;BME280;4077;43.702;24.896;2023-05-10T13:49:16;99859.28;;;18.19;43.48